sensor_id;sensor_type;location;lat;lon;timestamp;pressure;altitude;pressure_sealevel;temperature;humidity
74649;BME280;63168;49.280;7.214;2022-09-09T00:02:18;98340.56;;;22.60;55.32
74649;BME280;63168;49.280;7.214;2022-09-09T00:04:52;98344.06;;;22.60;55.23
74649;BME280;63168;49.280;7.214;2022-09-09T00:07:34;98335.22;;;22.60;55.44
74649;BME280;63168;49.280;7.214;2022-09-09T00:10:09;98342.25;;;22.61;55.43
74649;BME280;63168;49.280;7.214;2022-09-09T00:12:42;98343.06;;;22.62;55.46
74649;BME280;63168;49.280;7.214;2022-09-09T00:15:16;98339.56;;;22.61;55.36
74649;BME280;63168;49.280;7.214;2022-09-09T00:17:48;98343.06;;;22.62;55.27
74649;BME280;63168;49.280;7.214;2022-09-09T00:20:21;98343.91;;;22.62;55.61
74649;BME280;63168;49.280;7.214;2022-09-09T00:22:53;98340.38;;;22.62;55.18
74649;BME280;63168;49.280;7.214;2022-09-09T00:25:27;98337.88;;;22.60;55.18
74649;BME280;63168;49.280;7.214;2022-09-09T00:27:55;98344.91;;;22.61;55.56
74649;BME280;63168;49.280;7.214;2022-09-09T00:30:23;98352.94;;;22.61;55.38
74649;BME280;63168;49.280;7.214;2022-09-09T00:32:50;98347.59;;;22.61;55.13
74649;BME280;63168;49.280;7.214;2022-09-09T00:35:23;98344.06;;;22.60;55.24
74649;BME280;63168;49.280;7.214;2022-09-09T00:37:54;98339.56;;;22.61;55.51
74649;BME280;63168;49.280;7.214;2022-09-09T00:40:30;98343.06;;;22.62;55.03
74649;BME280;63168;49.280;7.214;2022-09-09T00:43:16;98336.91;;;22.61;55.43
74649;BME280;63168;49.280;7.214;2022-09-09T00:45:59;98346.75;;;22.60;55.30
74649;BME280;63168;49.280;7.214;2022-09-09T00:48:36;98348.41;;;22.62;55.34
74649;BME280;63168;49.280;7.214;2022-09-09T00:51:09;98341.41;;;22.60;55.13
74649;BME280;63168;49.280;7.214;2022-09-09T00:53:58;98341.41;;;22.60;55.28
74649;BME280;63168;49.280;7.214;2022-09-09T00:56:30;98344.91;;;22.61;55.23
74649;BME280;63168;49.280;7.214;2022-09-09T00:59:04;98344.06;;;22.60;55.07
74649;BME280;63168;49.280;7.214;2022-09-09T01:01:31;98340.75;;;22.58;55.37
74649;BME280;63168;49.280;7.214;2022-09-09T01:03:57;98343.22;;;22.60;55.17
74649;BME280;63168;49.280;7.214;2022-09-09T01:06:29;98332.53;;;22.60;55.37
74649;BME280;63168;49.280;7.214;2022-09-09T01:09:12;98340.38;;;22.62;54.99
74649;BME280;63168;49.280;7.214;2022-09-09T01:11:53;98336.06;;;22.60;55.04
74649;BME280;63168;49.280;7.214;2022-09-09T01:14:35;98331.56;;;22.61;55.00
74649;BME280;63168;49.280;7.214;2022-09-09T01:17:09;98333.38;;;22.60;55.37
74649;BME280;63168;49.280;7.214;2022-09-09T01:19:43;98341.22;;;22.62;55.19
74649;BME280;63168;49.280;7.214;2022-09-09T01:22:15;98338.56;;;22.62;54.86
74649;BME280;63168;49.280;7.214;2022-09-09T01:25:01;98347.59;;;22.61;54.94
74649;BME280;63168;49.280;7.214;2022-09-09T01:27:29;98342.25;;;22.61;54.88
74649;BME280;63168;49.280;7.214;2022-09-09T01:29:55;98343.06;;;22.62;55.00
74649;BME280;63168;49.280;7.214;2022-09-09T01:32:42;98354.59;;;22.62;55.33
74649;BME280;63168;49.280;7.214;2022-09-09T01:35:13;98349.41;;;22.60;55.00
74649;BME280;63168;49.280;7.214;2022-09-09T01:37:40;98344.91;;;22.61;55.02
74649;BME280;63168;49.280;7.214;2022-09-09T01:40:07;98350.25;;;22.61;54.93
74649;BME280;63168;49.280;7.214;2022-09-09T01:42:34;98352.94;;;22.61;54.73
74649;BME280;63168;49.280;7.214;2022-09-09T01:44:59;98347.59;;;22.61;55.05
74649;BME280;63168;49.280;7.214;2022-09-09T01:47:25;98348.41;;;22.62;54.68
74649;BME280;63168;49.280;7.214;2022-09-09T01:49:50;98342.25;;;22.61;54.98
74649;BME280;63168;49.280;7.214;2022-09-09T01:52:16;98341.22;;;22.62;55.09
74649;BME280;63168;49.280;7.214;2022-09-09T01:54:41;98339.41;;;22.63;54.94
74649;BME280;63168;49.280;7.214;2022-09-09T01:57:12;98333.22;;;22.62;54.77
74649;BME280;63168;49.280;7.214;2022-09-09T02:00:00;98329.69;;;22.62;55.08
74649;BME280;63168;49.280;7.214;2022-09-09T02:02:30;98332.38;;;22.62;54.89
74649;BME280;63168;49.280;7.214;2022-09-09T02:05:07;98332.38;;;22.62;55.34
74649;BME280;63168;49.280;7.214;2022-09-09T02:07:39;98333.22;;;22.62;54.92
74649;BME280;63168;49.280;7.214;2022-09-09T02:10:09;98329.69;;;22.62;54.87
74649;BME280;63168;49.280;7.214;2022-09-09T02:12:40;98337.72;;;22.62;55.10
74649;BME280;63168;49.280;7.214;2022-09-09T02:15:17;98336.91;;;22.61;54.71
74649;BME280;63168;49.280;7.214;2022-09-09T02:17:49;98330.72;;;22.60;55.21
74649;BME280;63168;49.280;7.214;2022-09-09T02:20:18;98329.88;;;22.60;55.29
74649;BME280;63168;49.280;7.214;2022-09-09T02:22:46;98324.53;;;22.60;55.04
74649;BME280;63168;49.280;7.214;2022-09-09T02:25:17;98324.53;;;22.60;54.82
74649;BME280;63168;49.280;7.214;2022-09-09T02:27:44;98333.53;;;22.59;55.23
74649;BME280;63168;49.280;7.214;2022-09-09T02:30:12;98321.19;;;22.58;54.83
74649;BME280;63168;49.280;7.214;2022-09-09T02:32:40;98322.84;;;22.59;55.05
74649;BME280;63168;49.280;7.214;2022-09-09T02:35:09;98320.19;;;22.59;55.26
74649;BME280;63168;49.280;7.214;2022-09-09T02:37:37;98318.53;;;22.58;54.70
74649;BME280;63168;49.280;7.214;2022-09-09T02:40:04;98320.19;;;22.59;55.29
74649;BME280;63168;49.280;7.214;2022-09-09T02:42:30;98321.03;;;22.59;54.68
74649;BME280;63168;49.280;7.214;2022-09-09T02:44:55;98318.34;;;22.59;54.93
74649;BME280;63168;49.280;7.214;2022-09-09T02:47:29;98318.53;;;22.58;54.71
74649;BME280;63168;49.280;7.214;2022-09-09T02:50:05;98321.19;;;22.58;55.00
74649;BME280;63168;49.280;7.214;2022-09-09T02:52:41;98315.84;;;22.58;54.92
74649;BME280;63168;49.280;7.214;2022-09-09T02:55:12;98320.34;;;22.57;55.12
74649;BME280;63168;49.280;7.214;2022-09-09T02:57:43;98320.34;;;22.57;55.00
74649;BME280;63168;49.280;7.214;2022-09-09T03:00:13;98321.19;;;22.58;54.97
74649;BME280;63168;49.280;7.214;2022-09-09T03:02:40;98326.38;;;22.59;54.80
74649;BME280;63168;49.280;7.214;2022-09-09T03:05:06;98326.38;;;22.59;54.75
74649;BME280;63168;49.280;7.214;2022-09-09T03:07:31;98333.53;;;22.59;54.97
74649;BME280;63168;49.280;7.214;2022-09-09T03:09:57;98332.72;;;22.58;54.76
74649;BME280;63168;49.280;7.214;2022-09-09T03:12:23;98334.41;;;22.59;54.80
74649;BME280;63168;49.280;7.214;2022-09-09T03:14:49;98329.22;;;22.58;54.69
74649;BME280;63168;49.280;7.214;2022-09-09T03:17:15;98326.53;;;22.58;54.99
74649;BME280;63168;49.280;7.214;2022-09-09T03:19:42;98324.88;;;22.57;54.88
74649;BME280;63168;49.280;7.214;2022-09-09T03:22:09;98329.38;;;22.56;54.87
74649;BME280;63168;49.280;7.214;2022-09-09T03:24:35;98321.34;;;22.56;54.65
74649;BME280;63168;49.280;7.214;2022-09-09T03:27:00;98321.34;;;22.56;54.65
74649;BME280;63168;49.280;7.214;2022-09-09T03:29:26;98325.00;;;22.55;54.67
74649;BME280;63168;49.280;7.214;2022-09-09T03:31:51;98324.16;;;22.55;54.77
74649;BME280;63168;49.280;7.214;2022-09-09T03:34:17;98326.84;;;22.55;55.04
74649;BME280;63168;49.280;7.214;2022-09-09T03:36:43;98320.66;;;22.54;54.60
74649;BME280;63168;49.280;7.214;2022-09-09T03:39:09;98331.34;;;22.54;54.57
74649;BME280;63168;49.280;7.214;2022-09-09T03:41:35;98328.66;;;22.54;54.91
74649;BME280;63168;49.280;7.214;2022-09-09T03:44:02;98328.66;;;22.54;54.92
74649;BME280;63168;49.280;7.214;2022-09-09T03:46:28;98332.19;;;22.55;54.92
74649;BME280;63168;49.280;7.214;2022-09-09T03:48:53;98335.84;;;22.54;54.94
74649;BME280;63168;49.280;7.214;2022-09-09T03:51:19;98332.34;;;22.53;54.72
74649;BME280;63168;49.280;7.214;2022-09-09T03:53:46;98337.53;;;22.55;55.02
74649;BME280;63168;49.280;7.214;2022-09-09T03:56:11;98338.53;;;22.54;54.75
74649;BME280;63168;49.280;7.214;2022-09-09T03:58:37;98334.00;;;22.54;54.75
74649;BME280;63168;49.280;7.214;2022-09-09T04:01:04;98331.34;;;22.54;54.58
74649;BME280;63168;49.280;7.214;2022-09-09T04:03:31;98332.19;;;22.55;54.73
74649;BME280;63168;49.280;7.214;2022-09-09T04:05:58;98332.19;;;22.55;54.76
74649;BME280;63168;49.280;7.214;2022-09-09T04:08:24;98332.19;;;22.55;54.79
74649;BME280;63168;49.280;7.214;2022-09-09T04:10:53;98333.84;;;22.56;54.34
74649;BME280;63168;49.280;7.214;2022-09-09T04:13:22;98335.66;;;22.30;54.18
74649;BME280;63168;49.280;7.214;2022-09-09T04:15:51;98333.84;;;21.79;55.33
74649;BME280;63168;49.280;7.214;2022-09-09T04:18:17;98337.66;;;21.42;56.33
74649;BME280;63168;49.280;7.214;2022-09-09T04:20:42;98345.69;;;21.15;56.87
74649;BME280;63168;49.280;7.214;2022-09-09T04:23:08;98342.97;;;20.89;57.46
74649;BME280;63168;49.280;7.214;2022-09-09T04:25:34;98348.31;;;20.71;58.09
74649;BME280;63168;49.280;7.214;2022-09-09T04:28:01;98351.78;;;20.71;58.68
74649;BME280;63168;49.280;7.214;2022-09-09T04:30:27;98350.50;;;20.57;58.74
74649;BME280;63168;49.280;7.214;2022-09-09T04:32:53;98352.63;;;20.35;59.78
74649;BME280;63168;49.280;7.214;2022-09-09T04:35:18;98353.41;;;20.27;59.92
74649;BME280;63168;49.280;7.214;2022-09-09T04:37:45;98353.78;;;20.14;60.34
74649;BME280;63168;49.280;7.214;2022-09-09T04:40:10;98357.31;;;20.05;61.20
74649;BME280;63168;49.280;7.214;2022-09-09T04:42:36;98363.34;;;19.97;61.36
74649;BME280;63168;49.280;7.214;2022-09-09T04:45:03;98354.44;;;19.88;61.54
74649;BME280;63168;49.280;7.214;2022-09-09T04:47:29;98359.97;;;19.77;61.94
74649;BME280;63168;49.280;7.214;2022-09-09T04:49:54;98361.69;;;19.68;62.51
74649;BME280;63168;49.280;7.214;2022-09-09T04:52:20;98362.41;;;19.60;63.15
74649;BME280;63168;49.280;7.214;2022-09-09T04:54:45;98354.03;;;19.55;63.22
74649;BME280;63168;49.280;7.214;2022-09-09T04:57:11;98354.19;;;19.53;63.18
74649;BME280;63168;49.280;7.214;2022-09-09T04:59:36;98355.88;;;19.45;63.51
74649;BME280;63168;49.280;7.214;2022-09-09T05:02:04;98356.31;;;19.40;63.76
74649;BME280;63168;49.280;7.214;2022-09-09T05:04:29;98361.06;;;19.46;63.80
74649;BME280;63168;49.280;7.214;2022-09-09T05:06:55;98360.91;;;19.48;63.75
74649;BME280;63168;49.280;7.214;2022-09-09T05:09:21;98366.53;;;19.45;63.89
74649;BME280;63168;49.280;7.214;2022-09-09T05:11:46;98369.84;;;19.47;63.77
74649;BME280;63168;49.280;7.214;2022-09-09T05:14:12;98371.41;;;19.39;64.43
74649;BME280;63168;49.280;7.214;2022-09-09T05:16:37;98366.13;;;19.29;64.25
74649;BME280;63168;49.280;7.214;2022-09-09T05:19:04;98369.91;;;19.27;64.62
74649;BME280;63168;49.280;7.214;2022-09-09T05:21:29;98374.09;;;19.29;65.07
74649;BME280;63168;49.280;7.214;2022-09-09T05:23:56;98372.53;;;19.37;64.82
74649;BME280;63168;49.280;7.214;2022-09-09T05:26:22;98369.88;;;19.37;65.08
74649;BME280;63168;49.280;7.214;2022-09-09T05:28:47;98372.13;;;19.41;65.30
74649;BME280;63168;49.280;7.214;2022-09-09T05:31:14;98371.84;;;19.45;64.99
74649;BME280;63168;49.280;7.214;2022-09-09T05:33:42;98375.50;;;19.44;65.52
74649;BME280;63168;49.280;7.214;2022-09-09T05:36:11;98380.50;;;19.47;65.12
74649;BME280;63168;49.280;7.214;2022-09-09T05:38:38;98377.53;;;19.50;65.36
74649;BME280;63168;49.280;7.214;2022-09-09T05:41:05;98380.31;;;19.58;65.17
74649;BME280;63168;49.280;7.214;2022-09-09T05:43:30;98385.34;;;19.61;64.74
74649;BME280;63168;49.280;7.214;2022-09-09T05:46:02;98390.94;;;19.58;65.38
74649;BME280;63168;49.280;7.214;2022-09-09T05:48:29;98391.66;;;19.60;65.29
74649;BME280;63168;49.280;7.214;2022-09-09T05:50:55;98391.53;;;19.52;65.47
74649;BME280;63168;49.280;7.214;2022-09-09T05:53:22;98403.28;;;19.59;65.13
74649;BME280;63168;49.280;7.214;2022-09-09T05:55:47;98392.38;;;19.62;65.29
74649;BME280;63168;49.280;7.214;2022-09-09T05:58:13;98399.50;;;19.62;65.44
74649;BME280;63168;49.280;7.214;2022-09-09T06:00:39;98394.16;;;19.62;65.70
74649;BME280;63168;49.280;7.214;2022-09-09T06:03:05;98399.91;;;19.57;65.77
74649;BME280;63168;49.280;7.214;2022-09-09T06:05:30;98398.25;;;19.56;65.71
74649;BME280;63168;49.280;7.214;2022-09-09T06:07:55;98405.66;;;19.62;65.88
74649;BME280;63168;49.280;7.214;2022-09-09T06:10:22;98401.00;;;19.64;65.38
74649;BME280;63168;49.280;7.214;2022-09-09T06:12:48;98401.44;;;19.60;65.52
74649;BME280;63168;49.280;7.214;2022-09-09T06:15:13;98397.81;;;19.61;65.43
74649;BME280;63168;49.280;7.214;2022-09-09T06:17:39;98404.81;;;19.62;65.41
74649;BME280;63168;49.280;7.214;2022-09-09T06:20:05;98402.53;;;19.67;65.40
74649;BME280;63168;49.280;7.214;2022-09-09T06:22:31;98401.72;;;19.66;65.52
74649;BME280;63168;49.280;7.214;2022-09-09T06:24:56;98407.63;;;19.60;65.82
74649;BME280;63168;49.280;7.214;2022-09-09T06:27:23;98412.53;;;19.55;65.87
74649;BME280;63168;49.280;7.214;2022-09-09T06:29:48;98406.38;;;19.54;65.95
74649;BME280;63168;49.280;7.214;2022-09-09T06:32:14;98404.81;;;19.62;66.09
74649;BME280;63168;49.280;7.214;2022-09-09T06:34:39;98412.06;;;19.70;65.79
74649;BME280;63168;49.280;7.214;2022-09-09T06:37:05;98407.19;;;19.65;65.56
74649;BME280;63168;49.280;7.214;2022-09-09T06:39:31;98403.44;;;19.58;65.81
74649;BME280;63168;49.280;7.214;2022-09-09T06:41:57;98401.19;;;19.53;66.20
74649;BME280;63168;49.280;7.214;2022-09-09T06:44:25;98398.53;;;19.53;66.19
74649;BME280;63168;49.280;7.214;2022-09-09T06:46:52;98396.25;;;19.58;65.70
74649;BME280;63168;49.280;7.214;2022-09-09T06:49:17;98398.94;;;19.58;65.85
74649;BME280;63168;49.280;7.214;2022-09-09T06:51:43;98403.81;;;19.63;65.59
74649;BME280;63168;49.280;7.214;2022-09-09T06:54:09;98402.16;;;19.62;66.12
74649;BME280;63168;49.280;7.214;2022-09-09T06:56:36;98402.00;;;19.63;66.01
74649;BME280;63168;49.280;7.214;2022-09-09T06:59:03;98397.94;;;19.69;65.93
74649;BME280;63168;49.280;7.214;2022-09-09T07:01:32;98399.19;;;19.65;66.09
74649;BME280;63168;49.280;7.214;2022-09-09T07:03:59;98406.75;;;19.70;65.90
74649;BME280;63168;49.280;7.214;2022-09-09T07:06:27;98398.03;;;19.77;65.64
74649;BME280;63168;49.280;7.214;2022-09-09T07:08:53;98401.69;;;19.76;65.68
74649;BME280;63168;49.280;7.214;2022-09-09T07:11:20;98404.19;;;19.78;65.59
74649;BME280;63168;49.280;7.214;2022-09-09T07:13:47;98410.00;;;19.63;65.61
74649;BME280;63168;49.280;7.214;2022-09-09T07:16:14;98412.22;;;19.58;65.75
74649;BME280;63168;49.280;7.214;2022-09-09T07:18:41;98405.28;;;19.47;66.16
74649;BME280;63168;49.280;7.214;2022-09-09T07:21:08;98415.78;;;19.39;66.78
74649;BME280;63168;49.280;7.214;2022-09-09T07:23:34;98414.25;;;19.36;66.78
74649;BME280;63168;49.280;7.214;2022-09-09T07:26:01;98409.38;;;19.32;67.07
74649;BME280;63168;49.280;7.214;2022-09-09T07:28:27;98407.25;;;19.35;66.57
74649;BME280;63168;49.280;7.214;2022-09-09T07:30:54;98413.28;;;19.37;66.49
74649;BME280;63168;49.280;7.214;2022-09-09T07:33:20;98413.28;;;19.37;66.94
74649;BME280;63168;49.280;7.214;2022-09-09T07:35:47;98416.78;;;19.38;66.65
74649;BME280;63168;49.280;7.214;2022-09-09T07:38:12;98414.13;;;19.38;66.82
74649;BME280;63168;49.280;7.214;2022-09-09T07:40:38;98417.47;;;19.40;66.52
74649;BME280;63168;49.280;7.214;2022-09-09T07:43:03;98416.78;;;19.38;66.69
74649;BME280;63168;49.280;7.214;2022-09-09T07:45:29;98426.28;;;19.40;66.33
74649;BME280;63168;49.280;7.214;2022-09-09T07:47:57;98427.69;;;19.35;66.50
74649;BME280;63168;49.280;7.214;2022-09-09T07:50:23;98417.47;;;19.30;67.02
74649;BME280;63168;49.280;7.214;2022-09-09T07:52:50;98429.78;;;19.31;66.76
74649;BME280;63168;49.280;7.214;2022-09-09T07:55:15;98422.81;;;19.30;66.97
74649;BME280;63168;49.280;7.214;2022-09-09T07:57:41;98425.72;;;19.37;66.45
74649;BME280;63168;49.280;7.214;2022-09-09T08:00:07;98430.22;;;19.36;66.53
74649;BME280;63168;49.280;7.214;2022-09-09T08:02:33;98432.88;;;19.36;67.07
74649;BME280;63168;49.280;7.214;2022-09-09T08:04:58;98429.63;;;19.42;66.70
74649;BME280;63168;49.280;7.214;2022-09-09T08:07:24;98431.28;;;19.53;66.27
74649;BME280;63168;49.280;7.214;2022-09-09T08:09:51;98434.50;;;19.57;66.17
74649;BME280;63168;49.280;7.214;2022-09-09T08:12:16;98428.34;;;19.57;66.08
74649;BME280;63168;49.280;7.214;2022-09-09T08:14:42;98426.50;;;19.57;65.85
74649;BME280;63168;49.280;7.214;2022-09-09T08:17:07;98425.81;;;19.65;65.49
74649;BME280;63168;49.280;7.214;2022-09-09T08:19:33;98432.50;;;19.69;65.64
74649;BME280;63168;49.280;7.214;2022-09-09T08:22:01;98427.44;;;19.76;64.88
74649;BME280;63168;49.280;7.214;2022-09-09T08:24:28;98430.09;;;19.76;64.85
74649;BME280;63168;49.280;7.214;2022-09-09T08:26:55;98432.03;;;19.84;64.46
74649;BME280;63168;49.280;7.214;2022-09-09T08:29:22;98437.13;;;19.77;64.52
74649;BME280;63168;49.280;7.214;2022-09-09T08:31:49;98442.91;;;19.62;64.96
74649;BME280;63168;49.280;7.214;2022-09-09T08:34:16;98436.47;;;19.55;65.18
74649;BME280;63168;49.280;7.214;2022-09-09T08:36:47;98438.44;;;19.53;64.91
74649;BME280;63168;49.280;7.214;2022-09-09T08:39:14;98425.84;;;19.55;64.84
74649;BME280;63168;49.280;7.214;2022-09-09T08:41:50;98436.31;;;19.66;64.81
74649;BME280;63168;49.280;7.214;2022-09-09T08:44:31;98444.97;;;19.68;64.72
74649;BME280;63168;49.280;7.214;2022-09-09T08:47:07;98440.50;;;19.69;64.34
74649;BME280;63168;49.280;7.214;2022-09-09T08:49:45;98434.88;;;19.72;64.31
74649;BME280;63168;49.280;7.214;2022-09-09T08:52:17;98446.06;;;19.76;64.19
74649;BME280;63168;49.280;7.214;2022-09-09T08:54:44;98445.25;;;19.75;64.27
74649;BME280;63168;49.280;7.214;2022-09-09T08:57:14;98445.25;;;19.75;64.52
74649;BME280;63168;49.280;7.214;2022-09-09T08:59:45;98440.34;;;19.71;64.43
74649;BME280;63168;49.280;7.214;2022-09-09T09:02:15;98436.41;;;19.75;64.40
74649;BME280;63168;49.280;7.214;2022-09-09T09:04:52;98446.63;;;19.79;64.18
74649;BME280;63168;49.280;7.214;2022-09-09T09:07:28;98435.84;;;19.81;64.07
74649;BME280;63168;49.280;7.214;2022-09-09T09:10:01;98441.59;;;19.76;63.87
74649;BME280;63168;49.280;7.214;2022-09-09T09:12:32;98441.59;;;19.76;63.27
74649;BME280;63168;49.280;7.214;2022-09-09T09:15:02;98442.72;;;19.74;63.40
74649;BME280;63168;49.280;7.214;2022-09-09T09:17:34;98442.25;;;19.88;63.27
74649;BME280;63168;49.280;7.214;2022-09-09T09:20:03;98436.31;;;20.04;62.50
74649;BME280;63168;49.280;7.214;2022-09-09T09:22:32;98441.00;;;20.21;61.93
74649;BME280;63168;49.280;7.214;2022-09-09T09:25:08;98440.50;;;20.35;61.92
74649;BME280;63168;49.280;7.214;2022-09-09T09:27:41;98426.16;;;20.46;61.15
74649;BME280;63168;49.280;7.214;2022-09-09T09:30:15;98429.72;;;20.55;60.83
74649;BME280;63168;49.280;7.214;2022-09-09T09:32:49;98427.97;;;20.64;60.48
74649;BME280;63168;49.280;7.214;2022-09-09T09:35:15;98433.56;;;20.71;60.21
74649;BME280;63168;49.280;7.214;2022-09-09T09:37:41;98428.59;;;20.76;59.97
74649;BME280;63168;49.280;7.214;2022-09-09T09:40:09;98429.97;;;20.80;60.09
74649;BME280;63168;49.280;7.214;2022-09-09T09:42:35;98431.34;;;20.84;59.76
74649;BME280;63168;49.280;7.214;2022-09-09T09:45:07;98427.38;;;20.88;59.60
74649;BME280;63168;49.280;7.214;2022-09-09T09:47:34;98411.13;;;20.91;59.71
74649;BME280;63168;49.280;7.214;2022-09-09T09:50:00;98412.63;;;20.94;59.13
74649;BME280;63168;49.280;7.214;2022-09-09T09:52:28;98416.00;;;20.96;59.07
74649;BME280;63168;49.280;7.214;2022-09-09T09:54:55;98408.69;;;20.98;59.27
74649;BME280;63168;49.280;7.214;2022-09-09T09:57:24;98415.53;;;21.01;59.09
74649;BME280;63168;49.280;7.214;2022-09-09T10:00:01;98423.38;;;21.02;58.71
74649;BME280;63168;49.280;7.214;2022-09-09T10:02:38;98431.22;;;21.04;58.84
74649;BME280;63168;49.280;7.214;2022-09-09T10:05:08;98424.75;;;21.06;58.46
74649;BME280;63168;49.280;7.214;2022-09-09T10:07:38;98421.09;;;21.07;58.63
74649;BME280;63168;49.280;7.214;2022-09-09T10:10:05;98429.94;;;21.08;58.31
74649;BME280;63168;49.280;7.214;2022-09-09T10:12:41;98424.44;;;21.10;58.32
74649;BME280;63168;49.280;7.214;2022-09-09T10:15:22;98424.13;;;21.13;58.09
74649;BME280;63168;49.280;7.214;2022-09-09T10:18:01;98427.63;;;21.13;58.14
74649;BME280;63168;49.280;7.214;2022-09-09T10:20:35;98423.97;;;21.14;58.48
74649;BME280;63168;49.280;7.214;2022-09-09T10:23:17;98414.00;;;21.16;58.30
74649;BME280;63168;49.280;7.214;2022-09-09T10:26:01;98409.50;;;21.17;58.22
74649;BME280;63168;49.280;7.214;2022-09-09T10:28:48;98408.34;;;21.19;58.27
74649;BME280;63168;49.280;7.214;2022-09-09T10:31:23;98404.69;;;21.20;58.23
74649;BME280;63168;49.280;7.214;2022-09-09T10:34:00;98400.19;;;21.21;57.70
74649;BME280;63168;49.280;7.214;2022-09-09T10:36:28;98396.38;;;21.24;58.25
74649;BME280;63168;49.280;7.214;2022-09-09T10:38:59;98397.22;;;21.24;58.17
74649;BME280;63168;49.280;7.214;2022-09-09T10:41:38;98403.22;;;21.26;58.07
74649;BME280;63168;49.280;7.214;2022-09-09T10:44:28;98398.44;;;21.30;58.42
74649;BME280;63168;49.280;7.214;2022-09-09T10:47:28;98409.75;;;21.32;58.44
74649;BME280;63168;49.280;7.214;2022-09-09T10:50:13;98403.44;;;21.33;58.17
74649;BME280;63168;49.280;7.214;2022-09-09T10:52:49;98398.09;;;21.33;58.16
74649;BME280;63168;49.280;7.214;2022-09-09T10:55:19;98395.28;;;21.35;57.80
74649;BME280;63168;49.280;7.214;2022-09-09T10:57:46;98385.47;;;21.35;57.95
74649;BME280;63168;49.280;7.214;2022-09-09T11:00:17;98388.13;;;21.35;57.83
74649;BME280;63168;49.280;7.214;2022-09-09T11:02:45;98388.13;;;21.35;58.09
74649;BME280;63168;49.280;7.214;2022-09-09T11:05:18;98387.97;;;21.37;57.69
74649;BME280;63168;49.280;7.214;2022-09-09T11:07:47;98395.97;;;21.37;58.11
74649;BME280;63168;49.280;7.214;2022-09-09T11:10:21;98399.47;;;21.37;58.03
74649;BME280;63168;49.280;7.214;2022-09-09T11:12:51;98407.31;;;21.39;58.04
74649;BME280;63168;49.280;7.214;2022-09-09T11:15:23;98425.81;;;21.40;57.71
74649;BME280;63168;49.280;7.214;2022-09-09T11:17:54;98456.84;;;21.41;57.50
74649;BME280;63168;49.280;7.214;2022-09-09T11:20:23;98415.16;;;21.40;57.44
74649;BME280;63168;49.280;7.214;2022-09-09T11:22:54;98416.84;;;21.41;57.93
74649;BME280;63168;49.280;7.214;2022-09-09T11:25:24;98409.66;;;21.42;57.47
74649;BME280;63168;49.280;7.214;2022-09-09T11:28:02;98401.66;;;21.42;57.54
74649;BME280;63168;49.280;7.214;2022-09-09T11:30:36;98397.00;;;21.44;57.52
74649;BME280;63168;49.280;7.214;2022-09-09T11:33:27;98405.03;;;21.44;57.75
74649;BME280;63168;49.280;7.214;2022-09-09T11:36:13;98403.16;;;21.44;57.80
74649;BME280;63168;49.280;7.214;2022-09-09T11:38:45;98409.34;;;21.45;57.40
74649;BME280;63168;49.280;7.214;2022-09-09T11:41:12;98403.00;;;21.46;57.75
74649;BME280;63168;49.280;7.214;2022-09-09T11:43:41;98394.03;;;21.47;57.37
74649;BME280;63168;49.280;7.214;2022-09-09T11:46:08;98400.19;;;21.48;57.31
74649;BME280;63168;49.280;7.214;2022-09-09T11:48:37;98390.38;;;21.48;57.74
74649;BME280;63168;49.280;7.214;2022-09-09T11:51:06;98394.69;;;21.49;57.57
74649;BME280;63168;49.280;7.214;2022-09-09T11:53:33;98402.69;;;21.49;57.56
74649;BME280;63168;49.280;7.214;2022-09-09T11:56:02;98406.22;;;21.50;57.46
74649;BME280;63168;49.280;7.214;2022-09-09T11:58:35;98403.56;;;21.50;57.74
74649;BME280;63168;49.280;7.214;2022-09-09T12:01:13;98395.41;;;21.51;57.49
74649;BME280;63168;49.280;7.214;2022-09-09T12:03:41;98391.88;;;21.51;57.22
74649;BME280;63168;49.280;7.214;2022-09-09T12:06:12;98397.06;;;21.52;57.54
74649;BME280;63168;49.280;7.214;2022-09-09T12:08:41;98400.56;;;21.53;57.26
74649;BME280;63168;49.280;7.214;2022-09-09T12:11:08;98402.25;;;21.54;57.54
74649;BME280;63168;49.280;7.214;2022-09-09T12:13:33;98405.75;;;21.54;57.12
74649;BME280;63168;49.280;7.214;2022-09-09T12:15:59;98400.41;;;21.54;57.39
74649;BME280;63168;49.280;7.214;2022-09-09T12:18:33;98399.41;;;21.55;57.45
74649;BME280;63168;49.280;7.214;2022-09-09T12:21:07;98401.25;;;21.55;57.25
74649;BME280;63168;49.280;7.214;2022-09-09T12:23:45;98400.25;;;21.56;57.53
74649;BME280;63168;49.280;7.214;2022-09-09T12:26:26;98396.59;;;21.57;57.67
74649;BME280;63168;49.280;7.214;2022-09-09T12:29:01;98405.41;;;21.57;57.20
74649;BME280;63168;49.280;7.214;2022-09-09T12:31:34;98393.94;;;21.57;57.24
74649;BME280;63168;49.280;7.214;2022-09-09T12:34:09;98391.09;;;21.58;57.35
74649;BME280;63168;49.280;7.214;2022-09-09T12:36:37;98390.25;;;21.58;57.52
74649;BME280;63168;49.280;7.214;2022-09-09T12:39:16;98387.59;;;21.58;57.55
74649;BME280;63168;49.280;7.214;2022-09-09T12:41:51;98393.63;;;21.60;57.57
74649;BME280;63168;49.280;7.214;2022-09-09T12:44:18;98389.94;;;21.61;57.57
74649;BME280;63168;49.280;7.214;2022-09-09T12:46:45;98382.94;;;21.60;57.71
74649;BME280;63168;49.280;7.214;2022-09-09T12:49:25;98380.13;;;21.62;57.65
74649;BME280;63168;49.280;7.214;2022-09-09T12:51:51;98383.59;;;21.62;57.69
74649;BME280;63168;49.280;7.214;2022-09-09T12:54:19;98379.28;;;21.61;57.37
74649;BME280;63168;49.280;7.214;2022-09-09T12:56:46;98370.25;;;21.62;57.62
74649;BME280;63168;49.280;7.214;2022-09-09T12:59:23;98364.94;;;21.62;57.22
74649;BME280;63168;49.280;7.214;2022-09-09T13:01:55;98370.25;;;21.62;57.48
74649;BME280;63168;49.280;7.214;2022-09-09T13:04:21;98379.97;;;21.63;57.19
74649;BME280;63168;49.280;7.214;2022-09-09T13:06:49;98384.28;;;21.64;57.09
74649;BME280;63168;49.280;7.214;2022-09-09T13:09:15;98381.63;;;21.64;57.36
74649;BME280;63168;49.280;7.214;2022-09-09T13:11:43;98376.28;;;21.64;57.66
74649;BME280;63168;49.280;7.214;2022-09-09T13:14:15;98364.78;;;21.64;57.35